Delmar, Maryland
Current Conditions -  °F | °C
As of 4:54 PM on Monday 24 Nov 2014 (Local Time) from KSBY Reporting Station
Clear Clear  
Wind Chill: 70°   Ceiling: Unl
Heat Index: 70°   Visibility: 10mi
Dew Point: 59°   Wind: 15mph
Humidity: 68%   Direction: 200°SSW
Pressure: 29.73"   Gusts: NA
Location:  38.46°N, 75.58°W
Report Text: KSBY 242154Z 20013KT 10SM CLR 21/15 A2973 RMK AO2 SLP069 T02110150
Loading
Personal Weather Stations






























Interactive Weather Map New forecast layout! Learn more

10-Day Weather Forecast

Advertisements
Track Severe Weather on mobile